createdAt,value
2023-04-09T00:01:12.658Z,4.38
2023-04-09T00:03:42.354Z,4.46
2023-04-09T00:06:13.400Z,4.34
2023-04-09T00:08:42.170Z,4.41
2023-04-09T00:11:10.084Z,4.24
2023-04-09T00:13:39.823Z,4.20
2023-04-09T00:16:09.477Z,4.17
2023-04-09T00:18:38.370Z,4.12
2023-04-09T00:21:08.877Z,4.14
2023-04-09T00:23:37.861Z,4.09
2023-04-09T00:26:06.689Z,4.03
2023-04-09T00:28:36.315Z,3.80
2023-04-09T00:31:04.307Z,3.80
2023-04-09T00:33:33.067Z,3.68
2023-04-09T00:36:02.003Z,3.39
2023-04-09T00:38:30.750Z,3.26
2023-04-09T00:40:58.745Z,3.28
2023-04-09T00:43:28.432Z,3.39
2023-04-09T00:45:57.332Z,3.23
2023-04-09T00:48:25.471Z,3.25
2023-04-09T00:50:54.434Z,3.25
2023-04-09T00:53:22.460Z,3.20
2023-04-09T00:55:51.389Z,2.94
2023-04-09T00:58:20.230Z,2.71
2023-04-09T01:00:49.083Z,2.76
2023-04-09T01:03:17.997Z,2.70
2023-04-09T01:06:11.529Z,2.80
2023-04-09T01:09:02.928Z,2.65
2023-04-09T01:12:10.822Z,2.66
2023-04-09T01:15:10.224Z,2.72
2023-04-09T01:17:47.591Z,2.70
2023-04-09T01:20:44.328Z,2.77
2023-04-09T01:23:48.373Z,2.78
2023-04-09T01:26:53.428Z,2.64
2023-04-09T01:29:24.287Z,2.67
2023-04-09T01:31:54.295Z,2.64
2023-04-09T01:34:24.339Z,2.70
2023-04-09T01:36:59.201Z,2.70
2023-04-09T01:39:28.433Z,2.66
2023-04-09T01:41:58.366Z,2.54
2023-04-09T01:44:29.275Z,2.47
2023-04-09T01:46:59.841Z,2.51
2023-04-09T01:49:29.586Z,2.49
2023-04-09T01:51:58.646Z,2.49
2023-04-09T01:54:27.447Z,2.40
2023-04-09T01:56:58.939Z,2.53
2023-04-09T01:59:27.835Z,2.28
2023-04-09T02:02:06.569Z,2.32
2023-04-09T02:04:44.603Z,2.34
2023-04-09T02:07:27.657Z,2.26
2023-04-09T02:10:00.042Z,2.53
2023-04-09T02:12:34.310Z,2.28
2023-04-09T02:15:04.763Z,2.51
2023-04-09T02:17:33.931Z,2.53
2023-04-09T02:20:03.828Z,2.79
2023-04-09T02:22:33.442Z,2.56
2023-04-09T02:25:03.107Z,2.91
2023-04-09T02:27:32.724Z,2.95
2023-04-09T02:30:01.527Z,3.16
2023-04-09T02:32:30.463Z,2.99
2023-04-09T02:34:59.234Z,3.15
2023-04-09T02:37:28.974Z,2.95
2023-04-09T02:39:58.604Z,2.89
2023-04-09T02:42:28.213Z,3.07
2023-04-09T02:44:56.975Z,2.91
2023-04-09T02:47:27.454Z,3.10
2023-04-09T02:49:57.093Z,3.16
2023-04-09T02:52:26.721Z,3.08
2023-04-09T02:54:54.613Z,3.09
2023-04-09T02:57:23.406Z,3.26
2023-04-09T02:59:52.977Z,3.21
2023-04-09T03:02:21.965Z,3.29
2023-04-09T03:04:51.196Z,3.33
2023-04-09T03:07:20.806Z,3.27
2023-04-09T03:09:49.574Z,3.26
2023-04-09T03:12:18.322Z,3.28
2023-04-09T03:14:47.150Z,3.21
2023-04-09T03:17:15.997Z,3.34
2023-04-09T03:19:43.882Z,3.42
2023-04-09T03:22:13.416Z,3.24
2023-04-09T03:24:42.318Z,3.15
2023-04-09T03:27:11.483Z,3.22
2023-04-09T03:29:40.297Z,3.26
2023-04-09T03:32:08.202Z,3.22
2023-04-09T03:34:37.737Z,3.08
2023-04-09T03:37:06.501Z,3.21
2023-04-09T03:39:34.398Z,3.22
2023-04-09T03:42:03.238Z,3.19
2023-04-09T03:44:32.060Z,3.30
2023-04-09T03:47:00.922Z,3.32
2023-04-09T03:49:29.762Z,3.35
2023-04-09T03:51:58.566Z,3.24
2023-04-09T03:54:30.946Z,3.30
2023-04-09T03:56:58.820Z,3.27
2023-04-09T03:59:26.647Z,3.20
2023-04-09T04:01:55.518Z,3.30
2023-04-09T04:04:24.416Z,3.19
2023-04-09T04:06:52.346Z,3.21
2023-04-09T04:09:21.110Z,3.22
2023-04-09T04:11:50.809Z,3.21
2023-04-09T04:14:20.458Z,3.32
2023-04-09T04:16:48.353Z,3.33
2023-04-09T04:19:17.185Z,3.48
2023-04-09T04:21:46.759Z,3.48
2023-04-09T04:24:16.334Z,3.23
2023-04-09T04:26:45.172Z,3.35
2023-04-09T04:29:14.013Z,3.36
2023-04-09T04:31:43.827Z,3.40
2023-04-09T04:34:13.382Z,3.47
2023-04-09T04:36:42.127Z,3.22
2023-04-09T04:39:10.942Z,3.41
2023-04-09T04:41:39.713Z,3.52
2023-04-09T04:44:08.482Z,3.55
2023-04-09T04:46:37.291Z,3.59
2023-04-09T04:49:06.151Z,3.57
2023-04-09T04:51:34.913Z,3.60
2023-04-09T04:54:04.619Z,3.57
2023-04-09T04:56:34.263Z,3.54
2023-04-09T04:59:03.860Z,3.57
2023-04-09T05:01:33.634Z,3.64
2023-04-09T05:04:04.396Z,3.75
2023-04-09T05:06:34.101Z,3.82
2023-04-09T05:09:02.861Z,3.86
2023-04-09T05:11:32.406Z,3.77
2023-04-09T05:14:01.951Z,3.90
2023-04-09T05:16:32.812Z,3.96
2023-04-09T05:19:02.775Z,4.05
2023-04-09T05:21:32.370Z,3.96
2023-04-09T05:24:01.315Z,4.05
2023-04-09T05:26:30.911Z,4.11
2023-04-09T05:28:59.798Z,3.97
2023-04-09T05:31:29.484Z,4.04
2023-04-09T05:33:59.068Z,4.10
2023-04-09T05:36:28.801Z,3.97
2023-04-09T05:38:58.511Z,4.23
2023-04-09T05:41:28.182Z,4.29
2023-04-09T05:44:00.070Z,4.37
2023-04-09T05:46:30.512Z,4.32
2023-04-09T05:49:00.214Z,4.50
2023-04-09T05:51:29.972Z,4.54
2023-04-09T05:53:59.604Z,4.67
2023-04-09T05:56:29.213Z,4.80
2023-04-09T05:58:58.786Z,4.85
2023-04-09T06:01:27.849Z,4.88
2023-04-09T06:03:58.457Z,4.67
2023-04-09T06:06:28.492Z,4.61
2023-04-09T06:08:57.282Z,4.43
2023-04-09T06:11:27.332Z,4.63
2023-04-09T06:13:56.192Z,4.85
2023-04-09T06:16:24.172Z,4.73
2023-04-09T06:18:54.771Z,4.69
2023-04-09T06:21:23.816Z,4.80
2023-04-09T06:23:53.955Z,4.73
2023-04-09T06:26:23.001Z,5.11
2023-04-09T06:28:52.673Z,5.26
2023-04-09T06:31:23.035Z,5.15
2023-04-09T06:33:53.034Z,5.27
2023-04-09T06:36:21.542Z,5.17
2023-04-09T06:38:50.414Z,5.00
2023-04-09T06:41:26.668Z,5.22
2023-04-09T06:43:54.900Z,5.30
2023-04-09T06:46:22.807Z,5.23
2023-04-09T06:48:51.744Z,5.47
2023-04-09T06:51:20.751Z,5.65
2023-04-09T06:53:50.003Z,5.61
2023-04-09T06:56:18.960Z,5.65
2023-04-09T06:58:47.967Z,5.67
2023-04-09T07:01:17.633Z,6.05
2023-04-09T07:03:47.799Z,5.90
2023-04-09T07:06:16.533Z,6.01
2023-04-09T07:08:45.703Z,6.33
2023-04-09T07:11:17.337Z,6.52
2023-04-09T07:13:46.096Z,6.45
2023-04-09T07:16:14.956Z,6.38
2023-04-09T07:18:44.573Z,6.54
2023-04-09T07:21:14.221Z,6.65
2023-04-09T07:23:43.911Z,6.39
2023-04-09T07:26:12.730Z,6.63
2023-04-09T07:28:42.475Z,6.46
2023-04-09T07:31:13.217Z,6.47
2023-04-09T07:33:42.020Z,6.65
2023-04-09T07:36:11.747Z,6.79
2023-04-09T07:38:40.522Z,6.65
2023-04-09T07:41:12.324Z,6.65
2023-04-09T07:43:42.017Z,6.80
2023-04-09T07:46:11.600Z,6.96
2023-04-09T07:48:41.278Z,6.98
2023-04-09T07:51:09.991Z,6.92
2023-04-09T07:53:38.715Z,7.15
2023-04-09T07:56:08.725Z,7.20
2023-04-09T07:58:41.227Z,7.14
2023-04-09T08:01:10.029Z,7.42
2023-04-09T08:03:38.962Z,7.62
2023-04-09T08:06:08.766Z,7.64
2023-04-09T08:08:37.762Z,7.46
2023-04-09T08:11:07.430Z,7.73
2023-04-09T08:13:36.336Z,7.92
2023-04-09T08:16:05.314Z,8.14
2023-04-09T08:18:34.869Z,8.63
2023-04-09T08:21:06.523Z,8.77
2023-04-09T08:23:35.339Z,8.64
2023-04-09T08:26:05.170Z,8.80
2023-04-09T08:28:34.705Z,8.35
2023-04-09T08:31:03.502Z,8.73
2023-04-09T08:33:31.579Z,9.24
2023-04-09T08:36:03.077Z,9.24
2023-04-09T08:38:32.920Z,9.59
2023-04-09T08:41:01.613Z,9.48
2023-04-09T08:43:47.300Z,9.25
2023-04-09T08:46:24.619Z,9.18
2023-04-09T08:48:55.340Z,8.90
2023-04-09T08:51:25.891Z,9.17
2023-04-09T08:54:04.741Z,9.52
2023-04-09T08:56:33.981Z,9.70
2023-04-09T08:59:03.542Z,9.83
2023-04-09T09:01:33.554Z,9.82
2023-04-09T09:04:09.021Z,10.00
2023-04-09T09:06:41.320Z,10.27
2023-04-09T09:09:17.273Z,10.53
2023-04-09T09:11:50.520Z,10.77
2023-04-09T09:14:20.971Z,10.94
2023-04-09T09:16:58.857Z,10.44
2023-04-09T09:19:27.561Z,10.61
2023-04-09T09:22:06.816Z,10.50
2023-04-09T09:24:50.797Z,10.56
2023-04-09T09:27:39.804Z,10.37
2023-04-09T09:30:10.710Z,10.42
2023-04-09T09:32:40.260Z,11.08
2023-04-09T09:35:09.652Z,10.38
2023-04-09T09:37:39.246Z,10.17
2023-04-09T09:40:09.689Z,10.35
2023-04-09T09:42:54.733Z,10.82
2023-04-09T09:45:26.323Z,10.79
2023-04-09T09:47:55.118Z,11.44
2023-04-09T09:50:25.996Z,10.97
2023-04-09T09:53:07.296Z,11.17
2023-04-09T09:55:44.105Z,11.33
2023-04-09T09:58:28.732Z,11.48
2023-04-09T10:00:59.500Z,11.35
2023-04-09T10:03:33.237Z,10.77
2023-04-09T10:06:04.854Z,10.73
2023-04-09T10:08:36.239Z,10.88
2023-04-09T10:11:08.020Z,10.68
2023-04-09T10:13:47.085Z,10.28
2023-04-09T10:16:17.757Z,10.79
2023-04-09T10:18:47.428Z,11.06
2023-04-09T10:21:42.882Z,11.16
2023-04-09T10:24:12.772Z,11.18
2023-04-09T10:26:47.240Z,11.65
2023-04-09T10:29:18.727Z,11.60
2023-04-09T10:32:07.318Z,11.56
2023-04-09T10:34:42.972Z,11.49
2023-04-09T10:37:22.727Z,11.61
2023-04-09T10:39:53.033Z,11.49
2023-04-09T10:42:35.118Z,10.90
2023-04-09T10:45:11.906Z,11.52
2023-04-09T10:47:43.817Z,11.55
2023-04-09T10:50:28.165Z,11.57
2023-04-09T10:53:00.425Z,12.05
2023-04-09T10:55:42.666Z,11.62
2023-04-09T10:58:13.814Z,11.51
2023-04-09T11:00:46.856Z,10.90
2023-04-09T11:03:25.320Z,11.28
2023-04-09T11:06:11.897Z,10.68
2023-04-09T11:08:41.896Z,10.95
2023-04-09T11:11:11.748Z,10.63
2023-04-09T11:13:43.330Z,10.78
2023-04-09T11:16:12.983Z,11.24
2023-04-09T11:18:56.369Z,10.88
2023-04-09T11:21:29.354Z,10.33
2023-04-09T11:23:57.935Z,10.32
2023-04-09T11:26:37.515Z,10.58
2023-04-09T11:29:10.361Z,10.28
2023-04-09T11:31:39.952Z,10.44
2023-04-09T11:34:12.689Z,10.57
2023-04-09T11:36:42.231Z,10.81
2023-04-09T11:39:11.057Z,10.97
2023-04-09T11:41:40.946Z,10.82
2023-04-09T11:44:09.791Z,10.83
2023-04-09T11:46:40.356Z,11.44
2023-04-09T11:49:10.585Z,11.90
2023-04-09T11:51:40.459Z,12.18
2023-04-09T11:54:09.847Z,12.41
2023-04-09T11:56:38.568Z,12.21
2023-04-09T11:59:07.413Z,12.42
2023-04-09T12:01:36.408Z,12.57
2023-04-09T12:04:06.039Z,12.45
2023-04-09T12:06:42.856Z,11.94
2023-04-09T12:09:14.298Z,12.32
2023-04-09T12:11:46.595Z,12.90
2023-04-09T12:14:17.852Z,12.59
2023-04-09T12:16:52.957Z,12.77
2023-04-09T12:19:25.646Z,12.66
2023-04-09T12:21:58.430Z,12.47
2023-04-09T12:24:29.113Z,12.96
2023-04-09T12:26:58.152Z,13.08
2023-04-09T12:29:27.152Z,12.64
2023-04-09T12:31:56.290Z,12.76
2023-04-09T12:34:27.472Z,12.93
2023-04-09T12:36:56.340Z,12.70
2023-04-09T12:39:26.384Z,12.16
2023-04-09T12:41:55.085Z,11.91
2023-04-09T12:44:24.571Z,11.92
2023-04-09T12:46:53.348Z,11.69
2023-04-09T12:49:22.917Z,11.49
2023-04-09T12:51:51.986Z,11.31
2023-04-09T12:54:20.826Z,10.64
2023-04-09T12:56:50.596Z,10.91
2023-04-09T12:59:26.703Z,11.05
2023-04-09T13:01:56.495Z,11.08
2023-04-09T13:04:25.517Z,11.03
2023-04-09T13:06:55.328Z,11.04
2023-04-09T13:09:24.022Z,10.80
2023-04-09T13:11:52.835Z,10.90
2023-04-09T13:14:21.605Z,10.94
2023-04-09T13:16:52.978Z,10.74
2023-04-09T13:19:21.733Z,10.81
2023-04-09T13:21:50.452Z,11.06
2023-04-09T13:24:20.049Z,10.75
2023-04-09T13:26:48.892Z,10.98
2023-04-09T13:29:18.158Z,11.20
2023-04-09T13:31:47.704Z,11.38
2023-04-09T13:34:16.706Z,11.40
2023-04-09T13:36:45.499Z,11.43
2023-04-09T13:39:14.217Z,11.39
2023-04-09T13:41:44.457Z,11.53
2023-04-09T13:44:14.046Z,11.49
2023-04-09T13:46:42.797Z,11.62
2023-04-09T13:49:12.789Z,11.43
2023-04-09T13:51:41.738Z,11.16
2023-04-09T13:54:11.491Z,11.36
2023-04-09T13:56:41.571Z,11.36
2023-04-09T13:59:10.256Z,11.54
2023-04-09T14:01:39.024Z,11.35
2023-04-09T14:04:09.650Z,11.43
2023-04-09T14:06:38.422Z,11.48
2023-04-09T14:09:07.118Z,11.26
2023-04-09T14:11:36.839Z,11.17
2023-04-09T14:14:06.477Z,10.97
2023-04-09T14:16:35.203Z,11.17
2023-04-09T14:19:04.003Z,11.37
2023-04-09T14:21:32.775Z,11.27
2023-04-09T14:24:02.002Z,11.52
2023-04-09T14:26:31.726Z,11.90
2023-04-09T14:29:01.243Z,12.48
2023-04-09T14:31:30.146Z,12.59
2023-04-09T14:33:58.964Z,12.60
2023-04-09T14:36:27.998Z,12.73
2023-04-09T14:38:58.187Z,12.67
2023-04-09T14:41:27.375Z,12.46
2023-04-09T14:43:56.246Z,12.18
2023-04-09T14:46:24.989Z,12.14
2023-04-09T14:48:54.945Z,11.99
2023-04-09T14:51:24.615Z,12.38
2023-04-09T14:53:54.116Z,12.07
2023-04-09T14:56:22.890Z,11.78
2023-04-09T14:58:52.398Z,11.50
2023-04-09T15:01:21.575Z,11.27
2023-04-09T15:03:51.439Z,11.23
2023-04-09T15:06:20.576Z,11.09
2023-04-09T15:08:50.131Z,11.16
2023-04-09T15:11:23.057Z,11.04
2023-04-09T15:13:53.141Z,10.88
2023-04-09T15:16:28.415Z,10.80
2023-04-09T15:18:59.344Z,10.74
2023-04-09T15:21:29.008Z,10.69
2023-04-09T15:23:59.327Z,10.68
2023-04-09T15:26:28.232Z,10.57
2023-04-09T15:29:08.408Z,10.53
2023-04-09T15:31:38.493Z,10.51
2023-04-09T15:34:08.983Z,10.61
2023-04-09T15:36:38.414Z,10.68
2023-04-09T15:39:07.976Z,10.64
2023-04-09T15:41:37.540Z,10.69
2023-04-09T15:44:08.534Z,10.58
2023-04-09T15:46:41.441Z,10.58
2023-04-09T15:49:10.680Z,10.54
2023-04-09T15:51:40.241Z,10.66
2023-04-09T15:54:09.288Z,10.63
2023-04-09T15:56:40.465Z,10.60
2023-04-09T15:59:09.421Z,10.57
2023-04-09T16:01:39.190Z,10.79
2023-04-09T16:04:09.265Z,10.71
2023-04-09T16:06:39.654Z,10.91
2023-04-09T16:09:08.484Z,10.59
2023-04-09T16:11:37.770Z,10.78
2023-04-09T16:14:07.674Z,10.81
2023-04-09T16:16:40.204Z,10.76
2023-04-09T16:19:09.785Z,10.66
2023-04-09T16:21:43.958Z,10.52
2023-04-09T16:24:13.993Z,10.57
2023-04-09T16:26:46.019Z,10.66
2023-04-09T16:29:16.668Z,10.62
2023-04-09T16:31:45.466Z,10.49
2023-04-09T16:34:15.025Z,10.55
2023-04-09T16:36:44.870Z,10.48
2023-04-09T16:39:19.544Z,10.22
2023-04-09T16:41:50.919Z,10.30
2023-04-09T16:44:20.527Z,10.41
2023-04-09T16:46:50.190Z,10.28
2023-04-09T16:49:19.763Z,10.23
2023-04-09T16:51:52.019Z,10.24
2023-04-09T16:54:21.502Z,10.16
2023-04-09T16:56:51.158Z,10.03
2023-04-09T16:59:21.360Z,10.00
2023-04-09T17:01:51.999Z,9.95
2023-04-09T17:04:22.187Z,9.94
2023-04-09T17:06:51.804Z,9.89
2023-04-09T17:09:21.348Z,9.75
2023-04-09T17:11:53.166Z,9.77
2023-04-09T17:14:23.096Z,9.61
2023-04-09T17:16:54.087Z,9.51
2023-04-09T17:19:23.672Z,9.59
2023-04-09T17:21:53.437Z,9.47
2023-04-09T17:24:23.159Z,9.57
2023-04-09T17:26:52.069Z,9.60
2023-04-09T17:29:20.842Z,9.63
2023-04-09T17:31:53.437Z,9.54
2023-04-09T17:34:24.334Z,9.38
2023-04-09T17:36:57.580Z,9.29
2023-04-09T17:39:29.602Z,9.21
2023-04-09T17:42:00.825Z,9.18
2023-04-09T17:44:31.567Z,9.16
2023-04-09T17:47:05.323Z,9.08
2023-04-09T17:49:35.764Z,9.07
2023-04-09T17:52:05.394Z,9.02
2023-04-09T17:54:35.928Z,8.93
2023-04-09T17:57:04.911Z,9.05
2023-04-09T17:59:35.985Z,8.89
2023-04-09T18:02:06.101Z,8.87
2023-04-09T18:04:36.369Z,8.74
2023-04-09T18:07:07.154Z,8.76
2023-04-09T18:09:39.297Z,8.71
2023-04-09T18:12:09.268Z,8.76
2023-04-09T18:14:38.946Z,8.75
2023-04-09T18:17:08.562Z,8.64
2023-04-09T18:19:39.193Z,8.52
2023-04-09T18:22:09.039Z,8.60
2023-04-09T18:24:38.684Z,8.43
2023-04-09T18:27:08.485Z,8.27
2023-04-09T18:29:38.126Z,8.25
2023-04-09T18:32:06.645Z,8.19
2023-04-09T18:34:38.350Z,8.03
2023-04-09T18:37:06.397Z,8.18
2023-04-09T18:39:38.058Z,8.01
2023-04-09T18:42:08.175Z,7.91
2023-04-09T18:44:37.958Z,7.96
2023-04-09T18:47:11.690Z,7.74
2023-04-09T18:49:41.542Z,7.64
2023-04-09T18:52:11.282Z,7.55
2023-04-09T18:54:43.134Z,7.70
2023-04-09T18:57:12.770Z,7.64
2023-04-09T18:59:43.612Z,7.58
2023-04-09T19:02:13.368Z,7.54
2023-04-09T19:04:43.171Z,7.38
2023-04-09T19:07:12.808Z,7.43
2023-04-09T19:09:41.923Z,7.25
2023-04-09T19:12:11.602Z,7.28
2023-04-09T19:14:41.266Z,7.21
2023-04-09T19:17:11.973Z,7.17
2023-04-09T19:19:44.458Z,7.09
2023-04-09T19:22:14.112Z,7.23
2023-04-09T19:24:45.090Z,7.10
2023-04-09T19:27:14.364Z,7.08
2023-04-09T19:29:46.408Z,7.18
2023-04-09T19:32:15.206Z,7.15
2023-04-09T19:34:53.962Z,7.19
2023-04-09T19:37:27.449Z,7.22
2023-04-09T19:40:04.704Z,7.12
2023-04-09T19:42:33.596Z,7.01
2023-04-09T19:45:02.516Z,6.92
2023-04-09T19:47:32.490Z,6.76
2023-04-09T19:50:01.672Z,6.65
2023-04-09T19:52:31.211Z,6.68
2023-04-09T19:55:04.583Z,6.58
2023-04-09T19:57:35.177Z,6.54
2023-04-09T20:00:05.856Z,6.52
2023-04-09T20:03:07.245Z,6.44
2023-04-09T20:05:37.118Z,6.40
2023-04-09T20:08:05.406Z,6.35
2023-04-09T20:10:43.005Z,6.23
2023-04-09T20:13:12.585Z,6.27
2023-04-09T20:15:42.256Z,6.32
2023-04-09T20:18:11.659Z,6.13
2023-04-09T20:20:41.366Z,6.12
2023-04-09T20:23:11.042Z,5.97
2023-04-09T20:25:40.552Z,5.93
2023-04-09T20:28:10.251Z,6.01
2023-04-09T20:30:40.074Z,5.88
2023-04-09T20:33:09.860Z,5.93
2023-04-09T20:35:39.609Z,5.64
2023-04-09T20:38:09.270Z,5.65
2023-04-09T20:40:38.976Z,5.54
2023-04-09T20:43:09.598Z,5.44
2023-04-09T20:45:37.651Z,5.37
2023-04-09T20:48:08.537Z,5.58
2023-04-09T20:50:39.160Z,5.73
2023-04-09T20:53:09.114Z,5.74
2023-04-09T20:55:38.990Z,5.80
2023-04-09T20:58:08.720Z,5.59
2023-04-09T21:00:38.427Z,5.65
2023-04-09T21:03:08.639Z,5.67
2023-04-09T21:05:38.447Z,5.63
2023-04-09T21:08:08.164Z,5.93
2023-04-09T21:10:38.707Z,5.70
2023-04-09T21:13:06.601Z,5.68
2023-04-09T21:15:34.548Z,5.56
2023-04-09T21:18:04.364Z,5.35
2023-04-09T21:20:34.042Z,5.28
2023-04-09T21:23:03.708Z,5.13
2023-04-09T21:25:33.404Z,4.80
2023-04-09T21:28:02.993Z,5.00
2023-04-09T21:30:37.720Z,4.69
2023-04-09T21:33:09.409Z,4.58
2023-04-09T21:35:39.298Z,4.73
2023-04-09T21:38:09.208Z,4.84
2023-04-09T21:40:38.836Z,4.90
2023-04-09T21:43:09.066Z,4.77
2023-04-09T21:45:38.724Z,4.99
2023-04-09T21:48:09.443Z,4.90
2023-04-09T21:50:39.032Z,5.02
2023-04-09T21:53:08.675Z,5.03
2023-04-09T21:55:39.134Z,4.94
2023-04-09T21:58:09.512Z,4.93
2023-04-09T22:00:38.873Z,4.86
2023-04-09T22:03:08.805Z,4.94
2023-04-09T22:05:38.698Z,5.02
2023-04-09T22:08:08.336Z,4.95
2023-04-09T22:10:37.147Z,4.69
2023-04-09T22:13:07.413Z,4.83
2023-04-09T22:15:36.991Z,4.83
2023-04-09T22:18:06.593Z,4.90
2023-04-09T22:20:37.094Z,4.51
2023-04-09T22:23:07.321Z,4.48
2023-04-09T22:25:37.107Z,4.40
2023-04-09T22:28:06.780Z,4.54
2023-04-09T22:30:36.649Z,4.50
2023-04-09T22:33:06.320Z,4.67
2023-04-09T22:35:36.620Z,4.55
2023-04-09T22:38:07.320Z,4.44
2023-04-09T22:40:37.074Z,4.44
2023-04-09T22:43:06.638Z,4.51
2023-04-09T22:45:36.978Z,4.50
2023-04-09T22:48:07.860Z,4.40
2023-04-09T22:50:37.751Z,4.38
2023-04-09T22:53:07.371Z,4.44
2023-04-09T22:55:38.446Z,4.37
2023-04-09T22:58:08.070Z,4.35
2023-04-09T23:00:37.682Z,4.32
2023-04-09T23:03:07.369Z,4.15
2023-04-09T23:05:37.836Z,4.37
2023-04-09T23:08:07.494Z,4.29
2023-04-09T23:10:37.268Z,4.42
2023-04-09T23:13:07.056Z,4.46
2023-04-09T23:15:38.318Z,4.35
2023-04-09T23:18:07.925Z,4.20
2023-04-09T23:20:37.722Z,4.30
2023-04-09T23:23:06.471Z,4.39
2023-04-09T23:25:36.064Z,4.02
2023-04-09T23:28:05.795Z,3.74
2023-04-09T23:30:35.432Z,3.79
2023-04-09T23:33:05.160Z,3.68
2023-04-09T23:35:34.891Z,3.84
2023-04-09T23:38:04.517Z,3.54
2023-04-09T23:40:34.160Z,3.61
2023-04-09T23:43:03.836Z,3.52
2023-04-09T23:45:33.485Z,3.82
2023-04-09T23:48:06.407Z,3.60
2023-04-09T23:50:40.759Z,3.49
2023-04-09T23:53:11.185Z,3.63
2023-04-09T23:55:41.926Z,3.73
2023-04-09T23:58:11.917Z,3.79
